sensor_id;sensor_type;location;lat;lon;timestamp;pressure;altitude;pressure_sealevel;temperature;humidity
11124;BME280;5616;42.692;23.312;2022-12-20T00:01:24;96977.09;;;1.27;78.54
11124;BME280;5616;42.692;23.312;2022-12-20T00:03:53;96978.06;;;1.24;79.17
11124;BME280;5616;42.692;23.312;2022-12-20T00:06:21;96985.94;;;1.19;79.54
11124;BME280;5616;42.692;23.312;2022-12-20T00:08:52;96983.41;;;1.19;79.57
11124;BME280;5616;42.692;23.312;2022-12-20T00:11:19;96994.16;;;1.24;79.16
11124;BME280;5616;42.692;23.312;2022-12-20T00:13:47;96985.50;;;1.11;78.81
11124;BME280;5616;42.692;23.312;2022-12-20T00:16:16;96993.16;;;1.11;78.16
11124;BME280;5616;42.692;23.312;2022-12-20T00:18:43;96995.16;;;1.22;77.46
11124;BME280;5616;42.692;23.312;2022-12-20T00:21:12;96997.44;;;1.27;78.29
11124;BME280;5616;42.692;23.312;2022-12-20T00:23:39;96993.38;;;1.40;77.30
11124;BME280;5616;42.692;23.312;2022-12-20T00:26:08;96990.84;;;1.40;77.52
11124;BME280;5616;42.692;23.312;2022-12-20T00:28:36;96995.13;;;1.39;77.19
11124;BME280;5616;42.692;23.312;2022-12-20T00:31:05;96990.59;;;1.29;76.81
11124;BME280;5616;42.692;23.312;2022-12-20T00:33:33;96991.22;;;1.32;77.12
11124;BME280;5616;42.692;23.312;2022-12-20T00:36:00;96984.72;;;1.27;76.29
11124;BME280;5616;42.692;23.312;2022-12-20T00:38:27;96994.16;;;1.24;77.67
11124;BME280;5616;42.692;23.312;2022-12-20T00:41:00;96988.63;;;1.34;76.53
11124;BME280;5616;42.692;23.312;2022-12-20T00:43:28;96988.63;;;1.34;76.54
11124;BME280;5616;42.692;23.312;2022-12-20T00:45:55;96983.22;;;1.40;75.69
11124;BME280;5616;42.692;23.312;2022-12-20T00:48:23;96986.81;;;1.36;75.74
11124;BME280;5616;42.692;23.312;2022-12-20T00:50:51;96984.72;;;1.44;75.34
11124;BME280;5616;42.692;23.312;2022-12-20T00:53:18;96989.06;;;1.42;75.89
11124;BME280;5616;42.692;23.312;2022-12-20T00:55:45;96987.66;;;1.36;75.23
11124;BME280;5616;42.692;23.312;2022-12-20T00:58:12;96984.44;;;1.33;75.67
11124;BME280;5616;42.692;23.312;2022-12-20T01:00:39;96987.56;;;1.38;76.39
11124;BME280;5616;42.692;23.312;2022-12-20T01:03:06;96989.13;;;1.40;75.19
11124;BME280;5616;42.692;23.312;2022-12-20T01:05:34;96986.56;;;1.40;75.52
11124;BME280;5616;42.692;23.312;2022-12-20T01:08:02;96989.47;;;1.34;75.46
11124;BME280;5616;42.692;23.312;2022-12-20T01:10:29;96992.91;;;1.33;74.51
11124;BME280;5616;42.692;23.312;2022-12-20T01:12:56;96986.94;;;1.17;75.31
11124;BME280;5616;42.692;23.312;2022-12-20T01:15:23;96980.56;;;1.08;75.61
11124;BME280;5616;42.692;23.312;2022-12-20T01:17:50;96983.81;;;0.95;75.16
11124;BME280;5616;42.692;23.312;2022-12-20T01:20:17;96986.19;;;0.98;75.46
11124;BME280;5616;42.692;23.312;2022-12-20T01:22:46;96980.47;;;0.94;75.81
11124;BME280;5616;42.692;23.312;2022-12-20T01:25:12;96971.63;;;1.01;75.05
11124;BME280;5616;42.692;23.312;2022-12-20T01:27:39;96966.22;;;1.07;74.65
11124;BME280;5616;42.692;23.312;2022-12-20T01:30:07;96965.56;;;1.04;75.46
11124;BME280;5616;42.692;23.312;2022-12-20T01:32:34;96954.03;;;0.97;74.80
11124;BME280;5616;42.692;23.312;2022-12-20T01:35:01;96945.59;;;0.96;75.59
11124;BME280;5616;42.692;23.312;2022-12-20T01:37:28;96954.44;;;0.89;76.03
11124;BME280;5616;42.692;23.312;2022-12-20T01:39:56;96963.47;;;0.78;76.24
11124;BME280;5616;42.692;23.312;2022-12-20T01:42:23;96953.66;;;0.87;76.45
11124;BME280;5616;42.692;23.312;2022-12-20T01:44:54;96946.13;;;0.86;75.31
11124;BME280;5616;42.692;23.312;2022-12-20T01:47:22;96944.19;;;0.91;75.68
11124;BME280;5616;42.692;23.312;2022-12-20T01:49:52;96948.13;;;0.96;75.17
11124;BME280;5616;42.692;23.312;2022-12-20T01:52:25;96938.78;;;0.97;75.13
11124;BME280;5616;42.692;23.312;2022-12-20T01:54:55;96938.41;;;1.04;73.99
11124;BME280;5616;42.692;23.312;2022-12-20T01:57:31;96931.81;;;1.00;75.10
11124;BME280;5616;42.692;23.312;2022-12-20T02:00:02;96938.78;;;0.97;74.37
11124;BME280;5616;42.692;23.312;2022-12-20T02:02:39;96937.19;;;1.11;74.07
11124;BME280;5616;42.692;23.312;2022-12-20T02:05:07;96941.78;;;0.88;74.66
11124;BME280;5616;42.692;23.312;2022-12-20T02:07:35;96936.63;;;0.89;74.22
11124;BME280;5616;42.692;23.312;2022-12-20T02:10:05;96927.28;;;0.73;74.78
11124;BME280;5616;42.692;23.312;2022-12-20T02:12:37;96927.66;;;0.82;74.96
11124;BME280;5616;42.692;23.312;2022-12-20T02:15:20;96928.31;;;0.86;74.30
11124;BME280;5616;42.692;23.312;2022-12-20T02:18:02;96930.06;;;0.68;74.77
11124;BME280;5616;42.692;23.312;2022-12-20T02:20:48;96925.72;;;0.70;75.66
11124;BME280;5616;42.692;23.312;2022-12-20T02:23:48;96923.34;;;0.84;74.74
11124;BME280;5616;42.692;23.312;2022-12-20T02:26:39;96928.31;;;0.69;74.93
11124;BME280;5616;42.692;23.312;2022-12-20T02:29:24;96927.66;;;0.82;74.94
11124;BME280;5616;42.692;23.312;2022-12-20T02:32:02;96923.47;;;0.81;76.15
11124;BME280;5616;42.692;23.312;2022-12-20T02:34:34;96925.25;;;0.79;74.49
11124;BME280;5616;42.692;23.312;2022-12-20T02:37:03;96933.66;;;0.81;74.67
11124;BME280;5616;42.692;23.312;2022-12-20T02:39:31;96924.06;;;0.69;75.56
11124;BME280;5616;42.692;23.312;2022-12-20T02:42:02;96925.44;;;0.76;74.69
11124;BME280;5616;42.692;23.312;2022-12-20T02:44:31;96927.78;;;0.79;75.21
11124;BME280;5616;42.692;23.312;2022-12-20T02:47:21;96925.03;;;0.67;74.37
11124;BME280;5616;42.692;23.312;2022-12-20T02:49:50;96925.38;;;0.60;74.50
11124;BME280;5616;42.692;23.312;2022-12-20T02:52:21;96917.75;;;0.60;74.81
11124;BME280;5616;42.692;23.312;2022-12-20T02:54:51;96916.16;;;0.41;75.65
11124;BME280;5616;42.692;23.312;2022-12-20T02:57:21;96923.03;;;0.56;76.37
11124;BME280;5616;42.692;23.312;2022-12-20T02:59:56;96919.00;;;0.52;76.32
11124;BME280;5616;42.692;23.312;2022-12-20T03:02:28;96917.88;;;0.57;75.10
11124;BME280;5616;42.692;23.312;2022-12-20T03:05:19;96914.22;;;0.63;75.31
11124;BME280;5616;42.692;23.312;2022-12-20T03:07:47;96923.56;;;0.63;74.22
11124;BME280;5616;42.692;23.312;2022-12-20T03:10:17;96911.00;;;0.59;74.91
11124;BME280;5616;42.692;23.312;2022-12-20T03:12:44;96910.47;;;0.53;75.06
11124;BME280;5616;42.692;23.312;2022-12-20T03:15:11;96905.81;;;0.61;76.07
11124;BME280;5616;42.692;23.312;2022-12-20T03:17:40;96895.47;;;0.66;76.06
11124;BME280;5616;42.692;23.312;2022-12-20T03:20:08;96900.16;;;0.73;75.74
11124;BME280;5616;42.692;23.312;2022-12-20T03:22:36;96900.44;;;0.67;76.14
11124;BME280;5616;42.692;23.312;2022-12-20T03:25:04;96908.00;;;0.69;76.34
11124;BME280;5616;42.692;23.312;2022-12-20T03:27:32;96906.81;;;0.58;77.31
11124;BME280;5616;42.692;23.312;2022-12-20T03:30:01;96901.66;;;0.60;75.46
11124;BME280;5616;42.692;23.312;2022-12-20T03:32:30;96904.56;;;0.70;75.56
11124;BME280;5616;42.692;23.312;2022-12-20T03:34:58;96906.81;;;0.58;74.82
11124;BME280;5616;42.692;23.312;2022-12-20T03:37:31;96905.09;;;0.59;75.58
11124;BME280;5616;42.692;23.312;2022-12-20T03:40:00;96901.38;;;0.49;74.71
11124;BME280;5616;42.692;23.312;2022-12-20T03:42:27;96905.31;;;0.54;75.74
11124;BME280;5616;42.692;23.312;2022-12-20T03:44:53;96901.00;;;0.39;76.84
11124;BME280;5616;42.692;23.312;2022-12-20T03:47:22;96902.84;;;0.36;77.42
11124;BME280;5616;42.692;23.312;2022-12-20T03:49:49;96896.44;;;0.46;76.92
11124;BME280;5616;42.692;23.312;2022-12-20T03:52:18;96896.44;;;0.46;76.01
11124;BME280;5616;42.692;23.312;2022-12-20T03:54:46;96901.97;;;0.37;77.20
11124;BME280;5616;42.692;23.312;2022-12-20T03:57:16;96898.50;;;0.38;76.39
11124;BME280;5616;42.692;23.312;2022-12-20T03:59:44;96888.06;;;0.44;76.91
11124;BME280;5616;42.692;23.312;2022-12-20T04:02:14;96893.75;;;0.49;76.86
11124;BME280;5616;42.692;23.312;2022-12-20T04:04:41;96902.47;;;0.43;75.39
11124;BME280;5616;42.692;23.312;2022-12-20T04:07:07;96907.56;;;0.43;75.13
11124;BME280;5616;42.692;23.312;2022-12-20T04:09:38;96900.03;;;0.42;75.25
11124;BME280;5616;42.692;23.312;2022-12-20T04:12:10;96888.75;;;0.47;75.63
11124;BME280;5616;42.692;23.312;2022-12-20T04:14:38;96891.63;;;0.40;75.40
11124;BME280;5616;42.692;23.312;2022-12-20T04:17:05;96896.22;;;0.33;76.04
11124;BME280;5616;42.692;23.312;2022-12-20T04:19:34;96894.94;;;0.42;75.92
11124;BME280;5616;42.692;23.312;2022-12-20T04:22:02;96891.63;;;0.40;75.56
11124;BME280;5616;42.692;23.312;2022-12-20T04:24:35;96891.81;;;0.37;74.84
11124;BME280;5616;42.692;23.312;2022-12-20T04:27:20;96892.94;;;0.31;74.94
11124;BME280;5616;42.692;23.312;2022-12-20T04:29:49;96887.06;;;0.29;75.65
11124;BME280;5616;42.692;23.312;2022-12-20T04:32:17;96881.25;;;0.10;76.05
11124;BME280;5616;42.692;23.312;2022-12-20T04:34:44;96889.38;;;0.17;75.71
11124;BME280;5616;42.692;23.312;2022-12-20T04:37:11;96889.47;;;0.15;76.42
11124;BME280;5616;42.692;23.312;2022-12-20T04:39:49;96884.16;;;0.20;75.55
11124;BME280;5616;42.692;23.312;2022-12-20T04:42:37;96891.94;;;0.17;75.50
11124;BME280;5616;42.692;23.312;2022-12-20T04:45:05;96883.72;;;0.12;75.67
11124;BME280;5616;42.692;23.312;2022-12-20T04:47:32;96880.72;;;0.04;75.56
11124;BME280;5616;42.692;23.312;2022-12-20T04:49:59;96883.34;;;0.02;76.18
11124;BME280;5616;42.692;23.312;2022-12-20T04:52:27;96879.81;;;0.05;75.75
11124;BME280;5616;42.692;23.312;2022-12-20T04:55:11;96871.97;;;0.09;76.63
11124;BME280;5616;42.692;23.312;2022-12-20T04:57:39;96882.41;;;0.03;76.80
11124;BME280;5616;42.692;23.312;2022-12-20T05:00:07;96875.72;;;0.19;76.19
11124;BME280;5616;42.692;23.312;2022-12-20T05:02:39;96881.31;;;0.09;77.35
11124;BME280;5616;42.692;23.312;2022-12-20T05:05:09;96880.88;;;0.18;76.87
11124;BME280;5616;42.692;23.312;2022-12-20T05:07:43;96878.84;;;0.24;76.27
11124;BME280;5616;42.692;23.312;2022-12-20T05:10:10;96874.75;;;0.22;76.47
11124;BME280;5616;42.692;23.312;2022-12-20T05:12:39;96889.53;;;0.14;76.67
11124;BME280;5616;42.692;23.312;2022-12-20T05:15:11;96881.63;;;0.20;76.70
11124;BME280;5616;42.692;23.312;2022-12-20T05:17:38;96878.06;;;0.24;77.18
11124;BME280;5616;42.692;23.312;2022-12-20T05:20:06;96877.75;;;0.13;77.05
11124;BME280;5616;42.692;23.312;2022-12-20T05:22:33;96879.81;;;0.05;76.45
11124;BME280;5616;42.692;23.312;2022-12-20T05:25:17;96881.75;;;-0.01;77.73
11124;BME280;5616;42.692;23.312;2022-12-20T05:28:07;96888.56;;;-0.01;76.44
11124;BME280;5616;42.692;23.312;2022-12-20T05:30:35;96884.50;;;-0.05;77.21
11124;BME280;5616;42.692;23.312;2022-12-20T05:33:02;96880.66;;;0.05;76.38
11124;BME280;5616;42.692;23.312;2022-12-20T05:35:30;96876.19;;;0.10;76.35
11124;BME280;5616;42.692;23.312;2022-12-20T05:38:07;96880.66;;;0.05;76.58
11124;BME280;5616;42.692;23.312;2022-12-20T05:40:35;96877.88;;;0.10;75.64
11124;BME280;5616;42.692;23.312;2022-12-20T05:43:02;96876.31;;;0.07;75.11
11124;BME280;5616;42.692;23.312;2022-12-20T05:45:36;96896.09;;;0.00;75.10
11124;BME280;5616;42.692;23.312;2022-12-20T05:48:09;96889.44;;;-0.02;75.47
11124;BME280;5616;42.692;23.312;2022-12-20T05:50:38;96890.72;;;0.07;76.59
11124;BME280;5616;42.692;23.312;2022-12-20T05:53:24;96889.91;;;0.06;75.48
11124;BME280;5616;42.692;23.312;2022-12-20T05:55:54;96891.47;;;-0.09;75.32
11124;BME280;5616;42.692;23.312;2022-12-20T05:58:27;96884.97;;;-0.33;77.22
11124;BME280;5616;42.692;23.312;2022-12-20T06:01:00;96892.09;;;-0.22;76.97
11124;BME280;5616;42.692;23.312;2022-12-20T06:03:28;96899.13;;;-0.10;76.51
11124;BME280;5616;42.692;23.312;2022-12-20T06:05:56;96897.63;;;-0.14;76.99
11124;BME280;5616;42.692;23.312;2022-12-20T06:08:26;96895.47;;;-0.05;77.16
11124;BME280;5616;42.692;23.312;2022-12-20T06:10:54;96896.91;;;0.01;76.50
11124;BME280;5616;42.692;23.312;2022-12-20T06:13:22;96892.66;;;0.02;76.06
11124;BME280;5616;42.692;23.312;2022-12-20T06:15:52;96896.69;;;0.06;75.96
11124;BME280;5616;42.692;23.312;2022-12-20T06:18:21;96892.84;;;0.16;76.26
11124;BME280;5616;42.692;23.312;2022-12-20T06:20:51;96892.97;;;0.13;75.98
11124;BME280;5616;42.692;23.312;2022-12-20T06:23:21;96902.03;;;0.18;75.95
11124;BME280;5616;42.692;23.312;2022-12-20T06:26:00;96893.13;;;0.27;75.56
11124;BME280;5616;42.692;23.312;2022-12-20T06:28:31;96898.16;;;0.28;75.92
11124;BME280;5616;42.692;23.312;2022-12-20T06:30:58;96895.38;;;0.33;75.42
11124;BME280;5616;42.692;23.312;2022-12-20T06:33:41;96895.53;;;0.30;74.50
11124;BME280;5616;42.692;23.312;2022-12-20T06:36:08;96900.28;;;0.19;74.08
11124;BME280;5616;42.692;23.312;2022-12-20T06:38:35;96885.47;;;-0.08;75.52
11124;BME280;5616;42.692;23.312;2022-12-20T06:41:02;96899.06;;;-0.09;76.24
11124;BME280;5616;42.692;23.312;2022-12-20T06:43:30;96889.25;;;0.03;75.62
11124;BME280;5616;42.692;23.312;2022-12-20T06:45:57;96896.13;;;0.18;75.33
11124;BME280;5616;42.692;23.312;2022-12-20T06:48:24;96883.13;;;0.24;75.50
11124;BME280;5616;42.692;23.312;2022-12-20T06:50:52;96869.47;;;0.26;75.18
11124;BME280;5616;42.692;23.312;2022-12-20T06:53:19;96875.19;;;0.30;74.05
11124;BME280;5616;42.692;23.312;2022-12-20T06:55:46;96878.56;;;0.30;74.17
11124;BME280;5616;42.692;23.312;2022-12-20T06:58:15;96873.41;;;0.32;74.67
11124;BME280;5616;42.692;23.312;2022-12-20T07:00:42;96879.16;;;0.35;75.04
11124;BME280;5616;42.692;23.312;2022-12-20T07:03:09;96863.09;;;0.35;74.39
11124;BME280;5616;42.692;23.312;2022-12-20T07:05:35;96865.19;;;0.44;73.54
11124;BME280;5616;42.692;23.312;2022-12-20T07:08:04;96866.53;;;0.51;74.03
11124;BME280;5616;42.692;23.312;2022-12-20T07:10:33;96855.16;;;0.58;73.90
11124;BME280;5616;42.692;23.312;2022-12-20T07:13:00;96861.06;;;0.24;74.01
11124;BME280;5616;42.692;23.312;2022-12-20T07:15:27;96861.66;;;0.29;73.90
11124;BME280;5616;42.692;23.312;2022-12-20T07:17:53;96863.91;;;0.35;73.12
11124;BME280;5616;42.692;23.312;2022-12-20T07:20:20;96858.47;;;0.43;72.62
11124;BME280;5616;42.692;23.312;2022-12-20T07:22:47;96864.22;;;0.46;72.41
11124;BME280;5616;42.692;23.312;2022-12-20T07:25:15;96870.03;;;0.48;73.01
11124;BME280;5616;42.692;23.312;2022-12-20T07:27:45;96872.66;;;0.47;72.49
11124;BME280;5616;42.692;23.312;2022-12-20T07:30:12;96861.88;;;0.59;72.22
11124;BME280;5616;42.692;23.312;2022-12-20T07:32:39;96857.78;;;0.56;71.88
11124;BME280;5616;42.692;23.312;2022-12-20T07:35:08;96865.31;;;0.58;71.68
11124;BME280;5616;42.692;23.312;2022-12-20T07:37:35;96863.06;;;0.69;72.11
11124;BME280;5616;42.692;23.312;2022-12-20T07:40:02;96859.34;;;0.76;71.75
11124;BME280;5616;42.692;23.312;2022-12-20T07:42:31;96858.19;;;0.82;71.59
11124;BME280;5616;42.692;23.312;2022-12-20T07:44:58;96868.88;;;0.88;71.57
11124;BME280;5616;42.692;23.312;2022-12-20T07:47:25;96862.06;;;0.89;69.88
11124;BME280;5616;42.692;23.312;2022-12-20T07:49:52;96862.97;;;0.88;69.99
11124;BME280;5616;42.692;23.312;2022-12-20T07:52:20;96849.41;;;0.87;69.04
11124;BME280;5616;42.692;23.312;2022-12-20T07:54:51;96855.41;;;0.86;70.56
11124;BME280;5616;42.692;23.312;2022-12-20T07:57:22;96850.94;;;0.74;71.30
11124;BME280;5616;42.692;23.312;2022-12-20T07:59:53;96845.88;;;0.90;70.37
11124;BME280;5616;42.692;23.312;2022-12-20T08:02:26;96844.13;;;0.92;70.27
11124;BME280;5616;42.692;23.312;2022-12-20T08:04:55;96839.38;;;1.01;69.69
11124;BME280;5616;42.692;23.312;2022-12-20T08:07:22;96840.59;;;0.94;69.32
11124;BME280;5616;42.692;23.312;2022-12-20T08:09:49;96841.44;;;1.10;69.10
11124;BME280;5616;42.692;23.312;2022-12-20T08:12:17;96833.56;;;1.15;69.21
11124;BME280;5616;42.692;23.312;2022-12-20T08:14:46;96839.56;;;1.30;68.30
11124;BME280;5616;42.692;23.312;2022-12-20T08:17:14;96847.28;;;1.28;68.04
11124;BME280;5616;42.692;23.312;2022-12-20T08:19:41;96840.69;;;1.40;67.77
11124;BME280;5616;42.692;23.312;2022-12-20T08:22:08;96835.78;;;1.37;67.35
11124;BME280;5616;42.692;23.312;2022-12-20T08:24:35;96832.28;;;1.39;68.40
11124;BME280;5616;42.692;23.312;2022-12-20T08:27:01;96833.31;;;1.51;68.06
11124;BME280;5616;42.692;23.312;2022-12-20T08:29:28;96828.22;;;1.51;67.52
11124;BME280;5616;42.692;23.312;2022-12-20T08:31:55;96827.81;;;1.58;66.53
11124;BME280;5616;42.692;23.312;2022-12-20T08:34:23;96824.63;;;1.39;66.54
11124;BME280;5616;42.692;23.312;2022-12-20T08:36:50;96824.06;;;1.50;66.80
11124;BME280;5616;42.692;23.312;2022-12-20T08:39:17;96816.88;;;1.56;65.84
11124;BME280;5616;42.692;23.312;2022-12-20T08:41:43;96823.13;;;1.51;67.09
11124;BME280;5616;42.692;23.312;2022-12-20T08:44:10;96818.44;;;1.59;65.76
11124;BME280;5616;42.692;23.312;2022-12-20T08:46:37;96822.31;;;1.66;65.83
11124;BME280;5616;42.692;23.312;2022-12-20T08:49:04;96820.09;;;1.60;65.19
11124;BME280;5616;42.692;23.312;2022-12-20T08:51:33;96818.88;;;1.51;65.77
11124;BME280;5616;42.692;23.312;2022-12-20T08:53:59;96821.56;;;1.64;65.38
11124;BME280;5616;42.692;23.312;2022-12-20T08:56:27;96812.03;;;1.67;65.56
11124;BME280;5616;42.692;23.312;2022-12-20T08:58:54;96818.13;;;1.65;66.64
11124;BME280;5616;42.692;23.312;2022-12-20T09:01:20;96815.25;;;1.71;65.78
11124;BME280;5616;42.692;23.312;2022-12-20T09:03:48;96818.25;;;1.77;64.97
11124;BME280;5616;42.692;23.312;2022-12-20T09:06:16;96810.84;;;1.89;64.37
11124;BME280;5616;42.692;23.312;2022-12-20T09:08:46;96804.88;;;2.04;63.62
11124;BME280;5616;42.692;23.312;2022-12-20T09:11:14;96800.63;;;2.04;63.65
11124;BME280;5616;42.692;23.312;2022-12-20T09:13:43;96795.56;;;2.18;64.31
11124;BME280;5616;42.692;23.312;2022-12-20T09:16:11;96787.88;;;2.04;64.18
11124;BME280;5616;42.692;23.312;2022-12-20T09:18:39;96784.00;;;2.13;64.55
11124;BME280;5616;42.692;23.312;2022-12-20T09:21:06;96789.81;;;2.15;62.81
11124;BME280;5616;42.692;23.312;2022-12-20T09:23:34;96787.16;;;2.16;63.28
11124;BME280;5616;42.692;23.312;2022-12-20T09:26:04;96767.16;;;2.10;62.12
11124;BME280;5616;42.692;23.312;2022-12-20T09:28:31;96767.66;;;2.31;61.83
11124;BME280;5616;42.692;23.312;2022-12-20T09:30:59;96772.47;;;2.35;61.89
11124;BME280;5616;42.692;23.312;2022-12-20T09:33:26;96765.91;;;2.45;61.36
11124;BME280;5616;42.692;23.312;2022-12-20T09:35:53;96769.56;;;2.56;61.42
11124;BME280;5616;42.692;23.312;2022-12-20T09:38:20;96768.13;;;2.66;61.27
11124;BME280;5616;42.692;23.312;2022-12-20T09:40:49;96761.38;;;2.65;62.49
11124;BME280;5616;42.692;23.312;2022-12-20T09:43:19;96760.38;;;2.39;62.44
11124;BME280;5616;42.692;23.312;2022-12-20T09:45:49;96742.16;;;2.31;62.63
11124;BME280;5616;42.692;23.312;2022-12-20T09:48:20;96753.28;;;2.58;61.27
11124;BME280;5616;42.692;23.312;2022-12-20T09:50:55;96751.19;;;2.65;61.40
11124;BME280;5616;42.692;23.312;2022-12-20T09:53:32;96744.97;;;2.83;62.76
11124;BME280;5616;42.692;23.312;2022-12-20T09:56:06;96735.59;;;2.69;60.94
11124;BME280;5616;42.692;23.312;2022-12-20T09:58:56;96724.28;;;2.87;62.63
11124;BME280;5616;42.692;23.312;2022-12-20T10:01:25;96728.81;;;2.96;60.44
11124;BME280;5616;42.692;23.312;2022-12-20T10:03:54;96721.81;;;3.00;59.08
11124;BME280;5616;42.692;23.312;2022-12-20T10:06:28;96722.22;;;3.21;59.75
11124;BME280;5616;42.692;23.312;2022-12-20T10:08:58;96717.63;;;3.26;58.06
11124;BME280;5616;42.692;23.312;2022-12-20T10:11:45;96711.75;;;3.38;57.68
11124;BME280;5616;42.692;23.312;2022-12-20T10:14:28;96702.91;;;3.56;59.43
11124;BME280;5616;42.692;23.312;2022-12-20T10:17:01;96685.44;;;3.50;56.56
11124;BME280;5616;42.692;23.312;2022-12-20T10:19:44;96676.66;;;3.54;57.97
11124;BME280;5616;42.692;23.312;2022-12-20T10:22:19;96670.72;;;3.53;58.14
11124;BME280;5616;42.692;23.312;2022-12-20T10:25:00;96672.91;;;3.59;56.95
11124;BME280;5616;42.692;23.312;2022-12-20T10:27:27;96657.78;;;3.56;57.53
11124;BME280;5616;42.692;23.312;2022-12-20T10:29:55;96659.13;;;3.62;57.42
11124;BME280;5616;42.692;23.312;2022-12-20T10:32:23;96640.13;;;3.79;56.89
11124;BME280;5616;42.692;23.312;2022-12-20T10:34:54;96620.81;;;3.75;56.22
11124;BME280;5616;42.692;23.312;2022-12-20T10:37:22;96633.69;;;3.73;56.38
11124;BME280;5616;42.692;23.312;2022-12-20T10:39:50;96636.75;;;3.91;56.24
11124;BME280;5616;42.692;23.312;2022-12-20T10:42:24;96627.03;;;3.96;55.48
11124;BME280;5616;42.692;23.312;2022-12-20T10:44:52;96621.22;;;4.06;55.27
11124;BME280;5616;42.692;23.312;2022-12-20T10:47:30;96609.38;;;4.05;54.25
11124;BME280;5616;42.692;23.312;2022-12-20T10:50:11;96614.88;;;4.12;54.76
11124;BME280;5616;42.692;23.312;2022-12-20T10:52:39;96611.28;;;4.14;54.59
11124;BME280;5616;42.692;23.312;2022-12-20T10:55:31;96604.03;;;4.21;53.72
11124;BME280;5616;42.692;23.312;2022-12-20T10:58:02;96598.06;;;4.33;53.93
11124;BME280;5616;42.692;23.312;2022-12-20T11:00:30;96603.81;;;4.37;53.54
11124;BME280;5616;42.692;23.312;2022-12-20T11:03:15;96595.53;;;4.33;54.13
11124;BME280;5616;42.692;23.312;2022-12-20T11:05:54;96597.41;;;4.55;69.48
11124;BME280;5616;42.692;23.312;2022-12-20T11:08:22;96589.47;;;4.47;56.09
11124;BME280;5616;42.692;23.312;2022-12-20T11:11:09;96586.81;;;4.36;53.81
11124;BME280;5616;42.692;23.312;2022-12-20T11:13:37;96578.47;;;4.57;55.38
11124;BME280;5616;42.692;23.312;2022-12-20T11:16:05;96575.03;;;4.69;55.63
11124;BME280;5616;42.692;23.312;2022-12-20T11:18:41;96587.13;;;4.67;53.22
11124;BME280;5616;42.692;23.312;2022-12-20T11:21:22;96571.16;;;4.76;52.77
11124;BME280;5616;42.692;23.312;2022-12-20T11:23:57;96562.53;;;4.77;51.78
11124;BME280;5616;42.692;23.312;2022-12-20T11:29:35;96559.13;;;5.01;51.89
11124;BME280;5616;42.692;23.312;2022-12-20T11:32:15;96552.50;;;4.98;53.21
11124;BME280;5616;42.692;23.312;2022-12-20T11:34:55;96546.72;;;5.07;53.98
11124;BME280;5616;42.692;23.312;2022-12-20T11:37:30;96553.94;;;5.02;51.59
11124;BME280;5616;42.692;23.312;2022-12-20T11:40:10;96549.16;;;5.09;52.67
11124;BME280;5616;42.692;23.312;2022-12-20T11:42:58;96538.63;;;4.89;52.11
11124;BME280;5616;42.692;23.312;2022-12-20T11:45:30;96533.81;;;5.09;51.61
11124;BME280;5616;42.692;23.312;2022-12-20T11:51:04;96538.53;;;5.26;50.90
11124;BME280;5616;42.692;23.312;2022-12-20T11:53:38;96537.81;;;5.24;49.38
11124;BME280;5616;42.692;23.312;2022-12-20T11:56:09;96532.94;;;5.21;49.91
11124;BME280;5616;42.692;23.312;2022-12-20T11:58:47;96524.28;;;5.11;51.54
11124;BME280;5616;42.692;23.312;2022-12-20T12:01:18;96525.09;;;5.11;51.43
11124;BME280;5616;42.692;23.312;2022-12-20T12:03:56;96525.00;;;5.13;52.50
11124;BME280;5616;42.692;23.312;2022-12-20T12:06:29;96518.72;;;5.28;52.40
11124;BME280;5616;42.692;23.312;2022-12-20T12:09:07;96516.91;;;5.41;52.56
11124;BME280;5616;42.692;23.312;2022-12-20T12:11:39;96515.97;;;5.42;50.12
11124;BME280;5616;42.692;23.312;2022-12-20T12:14:15;96518.66;;;5.51;49.80
11124;BME280;5616;42.692;23.312;2022-12-20T12:16:46;96509.69;;;5.57;52.33
11124;BME280;5616;42.692;23.312;2022-12-20T12:19:16;96516.47;;;5.58;51.29
11124;BME280;5616;42.692;23.312;2022-12-20T12:21:48;96510.63;;;5.56;51.77
11124;BME280;5616;42.692;23.312;2022-12-20T12:24:20;96502.59;;;5.49;51.42
11124;BME280;5616;42.692;23.312;2022-12-20T12:26:50;96503.63;;;5.69;51.60
11124;BME280;5616;42.692;23.312;2022-12-20T12:29:18;96495.88;;;5.82;51.42
11124;BME280;5616;42.692;23.312;2022-12-20T12:31:49;96505.44;;;5.91;49.74
11124;BME280;5616;42.692;23.312;2022-12-20T12:34:29;96506.22;;;5.80;49.07
11124;BME280;5616;42.692;23.312;2022-12-20T12:37:24;96499.00;;;5.63;47.33
11124;BME280;5616;42.692;23.312;2022-12-20T12:40:06;96491.06;;;5.55;48.08
11124;BME280;5616;42.692;23.312;2022-12-20T12:42:55;96492.22;;;5.51;47.45
11124;BME280;5616;42.692;23.312;2022-12-20T12:45:29;96503.88;;;5.55;46.62
11124;BME280;5616;42.692;23.312;2022-12-20T12:48:03;96488.84;;;5.50;47.18
11124;BME280;5616;42.692;23.312;2022-12-20T12:50:35;96497.81;;;5.56;46.30
11124;BME280;5616;42.692;23.312;2022-12-20T12:53:06;96501.44;;;5.65;48.62
11124;BME280;5616;42.692;23.312;2022-12-20T12:55:40;96490.97;;;5.68;50.02
11124;BME280;5616;42.692;23.312;2022-12-20T12:58:32;96480.59;;;5.47;48.97
11124;BME280;5616;42.692;23.312;2022-12-20T13:01:01;96480.13;;;5.64;50.28
11124;BME280;5616;42.692;23.312;2022-12-20T13:03:44;96475.00;;;5.75;50.04
11124;BME280;5616;42.692;23.312;2022-12-20T13:06:52;96477.78;;;5.72;47.65
11124;BME280;5616;42.692;23.312;2022-12-20T13:09:36;96470.91;;;5.73;48.14
11124;BME280;5616;42.692;23.312;2022-12-20T13:15:50;96458.94;;;5.84;47.83
11124;BME280;5616;42.692;23.312;2022-12-20T13:18:24;96461.03;;;5.79;48.13
11124;BME280;5616;42.692;23.312;2022-12-20T13:27:14;96463.47;;;5.58;46.39
11124;BME280;5616;42.692;23.312;2022-12-20T13:29:57;96465.22;;;5.47;46.34
11124;BME280;5616;42.692;23.312;2022-12-20T13:32:53;96465.91;;;5.49;47.42
11124;BME280;5616;42.692;23.312;2022-12-20T13:35:47;96457.75;;;5.44;49.19
11124;BME280;5616;42.692;23.312;2022-12-20T13:41:40;96458.81;;;5.52;47.29
11124;BME280;5616;42.692;23.312;2022-12-20T13:47:33;96456.25;;;5.41;46.05
11124;BME280;5616;42.692;23.312;2022-12-20T13:50:23;96455.19;;;5.33;49.22
11124;BME280;5616;42.692;23.312;2022-12-20T13:52:51;96453.56;;;5.43;50.28
11124;BME280;5616;42.692;23.312;2022-12-20T13:55:29;96451.47;;;5.48;50.42